createdAt,value
2023-03-28T00:01:12.755Z,97228.53
2023-03-28T00:03:42.756Z,97234.91
2023-03-28T00:06:20.837Z,97235.94
2023-03-28T00:08:51.197Z,97253.34
2023-03-28T00:11:22.320Z,97242.69
2023-03-28T00:13:57.721Z,97191.56
2023-03-28T00:16:26.893Z,97268.78
2023-03-28T00:18:55.141Z,97233.28
2023-03-28T00:21:29.327Z,97208.66
2023-03-28T00:24:01.855Z,97221.41
2023-03-28T00:26:32.627Z,97241.03
2023-03-28T00:29:02.031Z,97262.50
2023-03-28T00:31:32.188Z,97243.41
2023-03-28T00:34:00.442Z,97213.94
2023-03-28T00:36:32.745Z,97261.72
2023-03-28T00:39:02.325Z,97289.03
2023-03-28T00:41:32.308Z,97250.41
2023-03-28T00:44:01.323Z,97264.13
2023-03-28T00:46:34.804Z,97263.31
2023-03-28T00:49:10.873Z,97256.75
2023-03-28T00:51:45.508Z,97252.50
2023-03-28T00:54:19.885Z,97228.25
2023-03-28T00:56:52.970Z,97297.63
2023-03-28T00:59:24.460Z,97292.44
2023-03-28T01:01:52.815Z,97255.03
2023-03-28T01:04:24.435Z,97279.69
2023-03-28T01:06:58.876Z,97280.75
2023-03-28T01:09:28.221Z,97271.31
2023-03-28T01:11:59.087Z,97262.69
2023-03-28T01:14:30.085Z,97312.16
2023-03-28T01:17:00.325Z,97278.19
2023-03-28T01:19:47.968Z,97257.53
2023-03-28T01:23:14.250Z,97318.16
2023-03-28T01:26:24.105Z,97292.09
2023-03-28T01:29:45.258Z,97276.44
2023-03-28T01:32:52.300Z,97307.81
2023-03-28T01:36:10.303Z,97308.66
2023-03-28T01:38:48.932Z,97316.00
2023-03-28T01:41:27.446Z,97278.41
2023-03-28T01:44:07.578Z,97265.88
2023-03-28T01:46:40.585Z,97316.84
2023-03-28T01:49:12.214Z,97279.50
2023-03-28T01:51:52.390Z,97310.81
2023-03-28T01:54:31.474Z,97280.59
2023-03-28T01:57:14.618Z,97296.47
2023-03-28T01:59:46.524Z,97313.97
2023-03-28T02:02:34.275Z,97153.56
2023-03-28T02:05:24.824Z,97324.50
2023-03-28T02:07:55.790Z,97315.16
2023-03-28T02:10:41.438Z,97311.72
2023-03-28T02:13:35.258Z,97275.31
2023-03-28T02:16:42.927Z,97295.03
2023-03-28T02:19:25.094Z,97325.31
2023-03-28T02:22:20.722Z,97284.56
2023-03-28T02:25:15.659Z,97294.59
2023-03-28T02:28:02.547Z,97358.75
2023-03-28T02:30:53.370Z,97260.53
2023-03-28T02:33:42.354Z,97313.63
2023-03-28T02:36:25.843Z,97326.50
2023-03-28T02:39:22.975Z,97304.28
2023-03-28T02:42:15.701Z,97310.78
2023-03-28T02:45:11.369Z,97336.00
2023-03-28T02:47:45.878Z,97301.78
2023-03-28T02:50:25.560Z,97352.63
2023-03-28T02:53:03.047Z,97314.91
2023-03-28T02:55:39.293Z,97319.72
2023-03-28T02:58:29.585Z,97329.34
2023-03-28T03:00:59.260Z,97329.97
2023-03-28T03:03:27.813Z,97306.38
2023-03-28T03:05:58.291Z,97263.03
2023-03-28T03:08:27.842Z,97321.13
2023-03-28T03:10:57.172Z,97324.31
2023-03-28T03:13:26.004Z,97367.81
2023-03-28T03:15:54.575Z,97298.75
2023-03-28T03:18:27.532Z,97280.25
2023-03-28T03:20:56.180Z,97320.84
2023-03-28T03:23:24.349Z,97355.03
2023-03-28T03:25:56.026Z,97276.06
2023-03-28T03:28:29.697Z,97318.94
2023-03-28T03:30:58.178Z,97261.38
2023-03-28T03:33:27.730Z,97334.53
2023-03-28T03:36:01.887Z,97320.09
2023-03-28T03:38:30.287Z,97332.28
2023-03-28T03:40:58.854Z,97360.00
2023-03-28T03:43:28.391Z,97314.16
2023-03-28T03:45:57.709Z,97345.00
2023-03-28T03:48:29.511Z,97375.03
2023-03-28T03:51:00.494Z,97341.00
2023-03-28T03:53:29.588Z,97351.09
2023-03-28T03:56:06.939Z,97342.19
2023-03-28T03:58:51.930Z,97348.00
2023-03-28T04:01:21.145Z,97367.88
2023-03-28T04:03:55.354Z,97300.28
2023-03-28T04:06:30.425Z,97310.31
2023-03-28T04:08:58.987Z,97342.03
2023-03-28T04:11:47.197Z,97301.13
2023-03-28T04:14:17.273Z,97265.34
2023-03-28T04:16:46.530Z,97344.34
2023-03-28T04:19:17.165Z,97355.34
2023-03-28T04:21:48.155Z,97326.31
2023-03-28T04:24:17.545Z,97325.47
2023-03-28T04:26:50.163Z,97285.09
2023-03-28T04:29:25.121Z,97356.56
2023-03-28T04:32:12.873Z,97319.16
2023-03-28T04:35:07.879Z,97375.34
2023-03-28T04:37:37.844Z,97329.84
2023-03-28T04:40:11.244Z,97390.72
2023-03-28T04:42:51.876Z,97355.72
2023-03-28T04:45:26.811Z,97362.25
2023-03-28T04:47:57.063Z,97350.63
2023-03-28T04:50:26.685Z,97350.22
2023-03-28T04:52:54.964Z,97368.41
2023-03-28T04:55:25.619Z,97332.25
2023-03-28T04:57:53.925Z,97348.81
2023-03-28T05:00:24.171Z,97361.44
2023-03-28T05:03:07.132Z,97378.75
2023-03-28T05:05:43.565Z,97344.59
2023-03-28T05:08:17.195Z,97421.28
2023-03-28T05:10:47.300Z,97411.75
2023-03-28T05:13:16.855Z,97426.03
2023-03-28T05:15:52.076Z,97396.34
2023-03-28T05:18:36.143Z,97401.69
2023-03-28T05:21:07.247Z,97395.16
2023-03-28T05:23:35.698Z,97327.50
2023-03-28T05:26:09.085Z,97376.53
2023-03-28T05:28:39.948Z,97415.81
2023-03-28T05:31:08.854Z,97422.81
2023-03-28T05:33:37.384Z,97388.34
2023-03-28T05:36:09.358Z,97441.53
2023-03-28T05:38:38.033Z,97420.38
2023-03-28T05:41:12.885Z,97460.41
2023-03-28T05:43:41.171Z,97415.78
2023-03-28T05:46:09.602Z,97417.19
2023-03-28T05:48:42.900Z,97380.59
2023-03-28T05:51:20.088Z,97438.16
2023-03-28T05:53:48.390Z,97492.59
2023-03-28T05:56:16.636Z,97464.03
2023-03-28T05:58:44.840Z,97403.47
2023-03-28T06:01:18.002Z,97409.88
2023-03-28T06:04:19.157Z,97415.78
2023-03-28T06:06:53.504Z,97440.75
2023-03-28T06:09:27.086Z,97463.28
2023-03-28T06:12:00.497Z,97441.44
2023-03-28T06:14:29.223Z,97464.47
2023-03-28T06:16:59.808Z,97437.38
2023-03-28T06:19:35.078Z,97437.34
2023-03-28T06:22:04.840Z,97407.34
2023-03-28T06:24:33.245Z,97452.91
2023-03-28T06:27:01.453Z,97436.94
2023-03-28T06:29:29.959Z,97478.94
2023-03-28T06:32:04.189Z,97459.47
2023-03-28T06:34:32.805Z,97472.03
2023-03-28T06:37:04.504Z,97455.59
2023-03-28T06:40:01.880Z,97418.56
2023-03-28T06:42:31.558Z,97452.53
2023-03-28T06:45:14.769Z,97452.34
2023-03-28T06:48:05.368Z,97473.25
2023-03-28T06:50:56.959Z,97464.25
2023-03-28T06:53:28.260Z,97431.47
2023-03-28T06:55:56.734Z,97476.44
2023-03-28T06:58:26.376Z,97486.34
2023-03-28T07:01:01.936Z,97474.44
2023-03-28T07:03:50.697Z,97521.03
2023-03-28T07:06:22.708Z,97447.56
2023-03-28T07:08:52.365Z,97465.38
2023-03-28T07:11:25.616Z,97438.47
2023-03-28T07:13:53.843Z,97428.91
2023-03-28T07:16:22.454Z,97489.75
2023-03-28T07:18:51.213Z,97483.19
2023-03-28T07:21:28.327Z,97502.53
2023-03-28T07:24:00.988Z,97472.31
2023-03-28T07:26:36.565Z,97524.19
2023-03-28T07:29:04.805Z,97533.03
2023-03-28T07:31:33.754Z,97491.56
2023-03-28T07:34:02.044Z,97519.78
2023-03-28T07:36:30.961Z,97491.09
2023-03-28T07:39:10.194Z,97505.00
2023-03-28T07:41:39.335Z,97504.81
2023-03-28T07:44:07.824Z,97509.47
2023-03-28T07:46:37.563Z,97478.44
2023-03-28T07:49:06.624Z,97519.84
2023-03-28T07:51:37.369Z,97527.50
2023-03-28T07:54:05.947Z,97453.81
2023-03-28T07:56:35.588Z,97533.91
2023-03-28T07:59:30.284Z,97548.16
2023-03-28T08:01:58.784Z,97558.88
2023-03-28T08:04:27.814Z,97584.59
2023-03-28T08:07:07.810Z,97464.91
2023-03-28T08:09:37.181Z,97550.25
2023-03-28T08:12:14.691Z,97541.59
2023-03-28T08:14:44.041Z,97533.06
2023-03-28T08:17:12.266Z,97557.56
2023-03-28T08:19:40.561Z,97570.56
2023-03-28T08:22:16.526Z,97540.66
2023-03-28T08:24:53.935Z,97575.47
2023-03-28T08:27:25.735Z,97540.81
2023-03-28T08:29:59.372Z,97555.78
2023-03-28T08:32:28.714Z,97582.09
2023-03-28T08:35:02.737Z,97593.44
2023-03-28T08:37:32.570Z,97567.97
2023-03-28T08:40:04.126Z,97523.94
2023-03-28T08:43:11.973Z,97561.06
2023-03-28T08:45:51.848Z,97522.13
2023-03-28T08:48:25.561Z,97567.94
2023-03-28T08:51:05.108Z,97585.38
2023-03-28T08:53:38.886Z,97554.16
2023-03-28T08:56:09.510Z,97543.00
2023-03-28T08:58:51.329Z,97558.88
2023-03-28T09:01:22.151Z,97523.31
2023-03-28T09:03:51.220Z,97550.59
2023-03-28T09:06:32.104Z,97577.25
2023-03-28T09:09:21.548Z,97545.28
2023-03-28T09:12:19.734Z,97531.28
2023-03-28T09:15:20.536Z,97571.47
2023-03-28T09:18:07.536Z,97594.66
2023-03-28T09:20:44.964Z,97494.53
2023-03-28T09:23:47.766Z,97570.06
2023-03-28T09:26:37.310Z,97584.69
2023-03-28T09:29:15.419Z,97594.03
2023-03-28T09:31:48.740Z,97538.34
2023-03-28T09:34:23.450Z,97537.31
2023-03-28T09:36:58.152Z,97525.44
2023-03-28T09:39:36.813Z,97539.09
2023-03-28T09:42:12.432Z,97550.56
2023-03-28T09:44:55.138Z,97554.63
2023-03-28T09:47:48.826Z,97528.53
2023-03-28T09:50:25.183Z,97515.56
2023-03-28T09:52:58.872Z,97553.41
2023-03-28T09:55:30.462Z,97517.88
2023-03-28T09:58:06.827Z,97564.75
2023-03-28T10:00:53.804Z,97562.13
2023-03-28T10:03:57.678Z,97577.44
2023-03-28T10:06:48.078Z,97534.97
2023-03-28T10:09:22.746Z,97564.66
2023-03-28T10:12:04.576Z,97587.81
2023-03-28T10:14:38.121Z,97560.66
2023-03-28T10:17:17.702Z,97544.06
2023-03-28T10:19:51.382Z,97570.78
2023-03-28T10:22:27.042Z,97485.19
2023-03-28T10:24:57.345Z,97560.47
2023-03-28T10:27:29.456Z,97488.63
2023-03-28T10:29:59.868Z,97553.44
2023-03-28T10:32:33.191Z,97573.25
2023-03-28T10:35:27.912Z,97494.75
2023-03-28T10:38:18.257Z,97518.63
2023-03-28T10:41:25.376Z,97479.75
2023-03-28T10:44:19.975Z,97520.06
2023-03-28T10:46:56.694Z,97537.19
2023-03-28T10:49:42.262Z,97514.16
2023-03-28T10:52:24.236Z,97518.44
2023-03-28T10:55:08.033Z,97501.78
2023-03-28T10:58:10.447Z,97500.31
2023-03-28T11:00:53.141Z,97452.91
2023-03-28T11:03:43.255Z,97508.03
2023-03-28T11:06:18.626Z,97476.94
2023-03-28T11:09:04.952Z,97509.84
2023-03-28T11:12:22.995Z,97510.78
2023-03-28T11:15:10.774Z,97493.53
2023-03-28T11:17:59.170Z,97496.03
2023-03-28T11:20:41.950Z,97486.00
2023-03-28T11:23:25.811Z,97446.75
2023-03-28T11:26:18.718Z,97471.56
2023-03-28T11:29:19.706Z,97514.97
2023-03-28T11:31:56.931Z,97375.88
2023-03-28T11:34:30.458Z,97503.25
2023-03-28T11:37:03.664Z,97476.38
2023-03-28T11:39:40.927Z,97483.91
2023-03-28T11:42:16.507Z,97468.41
2023-03-28T11:44:51.240Z,97482.94
2023-03-28T11:47:23.734Z,97427.72
2023-03-28T11:50:04.056Z,97473.91
2023-03-28T11:52:55.772Z,97454.44
2023-03-28T11:55:32.187Z,97486.72
2023-03-28T11:58:12.123Z,97460.53
2023-03-28T12:00:46.358Z,97461.03
2023-03-28T12:03:25.493Z,97476.22
2023-03-28T12:06:27.434Z,97432.97
2023-03-28T12:09:01.957Z,97420.25
2023-03-28T12:11:42.154Z,97474.59
2023-03-28T12:14:30.995Z,97427.16
2023-03-28T12:17:16.859Z,97419.31
2023-03-28T12:19:48.459Z,97446.81
2023-03-28T12:22:26.826Z,97337.28
2023-03-28T12:25:03.819Z,97364.56
2023-03-28T12:27:57.199Z,97422.25
2023-03-28T12:30:37.641Z,97424.53
2023-03-28T12:33:18.405Z,97441.75
2023-03-28T12:36:04.366Z,97406.09
2023-03-28T12:38:40.447Z,97419.81
2023-03-28T12:41:26.091Z,97400.13
2023-03-28T12:43:59.686Z,97358.28
2023-03-28T12:46:45.924Z,97318.53
2023-03-28T12:49:24.939Z,97449.41
2023-03-28T12:51:56.270Z,97340.78
2023-03-28T12:54:28.716Z,97400.09
2023-03-28T12:57:06.561Z,97374.41
2023-03-28T13:00:06.307Z,97396.28
2023-03-28T13:03:16.314Z,97397.09
2023-03-28T13:05:54.926Z,97363.91
2023-03-28T13:08:31.770Z,97401.38
2023-03-28T13:11:17.685Z,97376.28
2023-03-28T13:13:55.554Z,97402.25
2023-03-28T13:16:27.308Z,97343.78
2023-03-28T13:19:10.714Z,97370.25
2023-03-28T13:21:46.097Z,97390.09
2023-03-28T13:24:31.950Z,97382.66
2023-03-28T13:27:02.708Z,97341.72
2023-03-28T13:29:48.241Z,97395.84
2023-03-28T13:32:19.764Z,97381.03
2023-03-28T13:34:50.871Z,97358.53
2023-03-28T13:37:23.377Z,97399.28
2023-03-28T13:39:53.725Z,97387.69
2023-03-28T13:42:31.262Z,97415.22
2023-03-28T13:45:04.895Z,97350.88
2023-03-28T13:47:38.333Z,97376.63
2023-03-28T13:50:20.925Z,97394.88
2023-03-28T13:52:49.399Z,97374.41
2023-03-28T13:55:26.067Z,97360.31
2023-03-28T13:57:54.692Z,97382.69
2023-03-28T14:00:26.689Z,97382.97
2023-03-28T14:03:02.389Z,97380.16
2023-03-28T14:05:35.911Z,97395.72
2023-03-28T14:08:25.236Z,97347.72
2023-03-28T14:10:55.471Z,97356.81
2023-03-28T14:13:28.040Z,97320.44
2023-03-28T14:15:56.867Z,97343.09
2023-03-28T14:18:32.892Z,97262.53
2023-03-28T14:21:03.477Z,97225.63
2023-03-28T14:23:35.560Z,97350.97
2023-03-28T14:26:11.219Z,97339.97
2023-03-28T14:28:42.133Z,97323.00
2023-03-28T14:31:14.909Z,97348.97
2023-03-28T14:33:47.417Z,97305.47
2023-03-28T14:36:18.815Z,97252.00
2023-03-28T14:38:47.036Z,97281.34
2023-03-28T14:41:19.257Z,97262.06
2023-03-28T14:43:52.953Z,97309.56
2023-03-28T14:46:24.997Z,97319.88
2023-03-28T14:48:54.523Z,97308.75
2023-03-28T14:51:24.604Z,97308.22
2023-03-28T14:53:53.356Z,97278.34
2023-03-28T14:56:26.282Z,97319.59
2023-03-28T14:58:59.939Z,97312.09
2023-03-28T15:01:30.568Z,97217.88
2023-03-28T15:04:05.144Z,97134.25
2023-03-28T15:06:36.516Z,97255.31
2023-03-28T15:09:28.062Z,97218.47
2023-03-28T15:11:58.036Z,97280.94
2023-03-28T15:14:33.244Z,97224.16
2023-03-28T15:17:01.977Z,97271.78
2023-03-28T15:19:37.052Z,97261.59
2023-03-28T15:22:11.225Z,97232.25
2023-03-28T15:24:39.929Z,97223.34
2023-03-28T15:27:09.797Z,97217.00
2023-03-28T15:29:39.752Z,97239.13
2023-03-28T15:32:16.416Z,97206.63
2023-03-28T15:34:49.740Z,97201.50
2023-03-28T15:37:23.844Z,97232.81
2023-03-28T15:39:53.046Z,97233.13
2023-03-28T15:42:37.108Z,97234.31
2023-03-28T15:45:45.695Z,97203.97
2023-03-28T15:48:20.115Z,97201.28
2023-03-28T15:50:54.893Z,97126.97
2023-03-28T15:53:28.100Z,97203.09
2023-03-28T15:56:00.668Z,97224.06
2023-03-28T15:58:28.983Z,97137.19
2023-03-28T16:00:57.235Z,97174.59
2023-03-28T16:03:34.455Z,97165.38
2023-03-28T16:06:31.663Z,97154.19
2023-03-28T16:09:19.066Z,97223.63
2023-03-28T16:11:50.741Z,97231.84
2023-03-28T16:14:20.813Z,97162.31
2023-03-28T16:17:14.881Z,97173.16
2023-03-28T16:19:50.976Z,97171.91
2023-03-28T16:22:21.004Z,97181.88
2023-03-28T16:24:51.329Z,97072.94
2023-03-28T16:27:20.337Z,97199.53
2023-03-28T16:29:49.251Z,97153.25
2023-03-28T16:32:17.980Z,97210.44
2023-03-28T16:34:46.161Z,97163.22
2023-03-28T16:37:14.327Z,97162.19
2023-03-28T16:39:42.527Z,97191.41
2023-03-28T16:42:12.108Z,97172.41
2023-03-28T16:44:40.393Z,97162.38
2023-03-28T16:47:08.610Z,97191.88
2023-03-28T16:49:36.913Z,97165.31
2023-03-28T16:52:05.224Z,97138.97
2023-03-28T16:54:33.416Z,97196.22
2023-03-28T16:57:01.706Z,97218.59
2023-03-28T16:59:31.329Z,97190.16
2023-03-28T17:01:59.724Z,97155.13
2023-03-28T17:04:30.098Z,97168.91
2023-03-28T17:06:58.475Z,97170.28
2023-03-28T17:09:27.301Z,97158.84
2023-03-28T17:11:55.586Z,97155.56
2023-03-28T17:14:23.845Z,97163.06
2023-03-28T17:16:53.438Z,97138.84
2023-03-28T17:19:24.064Z,97155.84
2023-03-28T17:21:53.541Z,97093.88
2023-03-28T17:24:22.124Z,97136.16
2023-03-28T17:26:50.807Z,97062.38
2023-03-28T17:29:19.091Z,97148.06
2023-03-28T17:31:47.572Z,97141.59
2023-03-28T17:34:17.178Z,97121.09
2023-03-28T17:36:45.568Z,96980.53
2023-03-28T17:39:13.898Z,97149.59
2023-03-28T17:41:42.535Z,97153.13
2023-03-28T17:44:11.153Z,97114.75
2023-03-28T17:46:39.552Z,97075.84
2023-03-28T17:49:08.096Z,97126.38
2023-03-28T17:51:38.234Z,97144.66
2023-03-28T17:54:11.797Z,97126.13
2023-03-28T17:56:40.544Z,97010.50
2023-03-28T17:59:09.125Z,97099.00
2023-03-28T18:01:43.736Z,97106.03
2023-03-28T18:04:12.454Z,97092.00
2023-03-28T18:07:29.857Z,97130.53
2023-03-28T18:10:01.506Z,97092.22
2023-03-28T18:12:32.390Z,97091.19
2023-03-28T18:15:01.492Z,97066.06
2023-03-28T18:17:30.172Z,97130.84
2023-03-28T18:19:58.996Z,97107.19
2023-03-28T18:22:28.144Z,97110.13
2023-03-28T18:24:57.693Z,97051.16
2023-03-28T18:27:26.011Z,97111.78
2023-03-28T18:29:54.758Z,97059.63
2023-03-28T18:32:24.091Z,97120.31
2023-03-28T18:34:52.358Z,97083.00
2023-03-28T18:37:20.643Z,97094.53
2023-03-28T18:39:48.833Z,97069.16
2023-03-28T18:42:18.599Z,97094.84
2023-03-28T18:44:47.456Z,97136.75
2023-03-28T18:47:15.933Z,97109.16
2023-03-28T18:49:44.201Z,97089.91
2023-03-28T18:52:12.475Z,97124.47
2023-03-28T18:54:45.733Z,97085.75
2023-03-28T18:57:14.110Z,97088.50
2023-03-28T18:59:43.751Z,97067.69
2023-03-28T19:02:14.000Z,97081.81
2023-03-28T19:04:42.498Z,96999.88
2023-03-28T19:07:10.750Z,97056.41
2023-03-28T19:09:39.031Z,97039.47
2023-03-28T19:12:08.970Z,97082.66
2023-03-28T19:14:37.507Z,97071.94
2023-03-28T19:17:07.449Z,97071.19
2023-03-28T19:19:37.461Z,97017.69
2023-03-28T19:22:06.500Z,97036.44
2023-03-28T19:24:35.205Z,97067.81
2023-03-28T19:27:05.192Z,97028.31
2023-03-28T19:29:33.732Z,97055.81
2023-03-28T19:32:02.355Z,97032.34
2023-03-28T19:34:32.285Z,97034.84
2023-03-28T19:37:00.487Z,97086.44
2023-03-28T19:39:28.687Z,97053.63
2023-03-28T19:41:56.943Z,97097.44
2023-03-28T19:44:25.482Z,97108.22
2023-03-28T19:46:53.738Z,97049.22
2023-03-28T19:49:21.936Z,97074.44
2023-03-28T19:51:53.469Z,97059.34
2023-03-28T19:54:22.024Z,97051.84
2023-03-28T19:56:50.316Z,97098.50
2023-03-28T19:59:18.532Z,97095.34
2023-03-28T20:01:46.845Z,97021.28
2023-03-28T20:04:27.551Z,97003.97
2023-03-28T20:06:57.926Z,96971.63
2023-03-28T20:09:26.290Z,97051.09
2023-03-28T20:11:54.513Z,97053.81
2023-03-28T20:14:22.704Z,96963.56
2023-03-28T20:16:51.050Z,97026.28
2023-03-28T20:19:19.980Z,97002.91
2023-03-28T20:21:49.147Z,97034.09
2023-03-28T20:24:19.085Z,97044.19
2023-03-28T20:26:47.691Z,97028.22
2023-03-28T20:29:15.870Z,97026.44
2023-03-28T20:31:44.159Z,97036.00
2023-03-28T20:34:12.414Z,97001.47
2023-03-28T20:36:41.466Z,97052.69
2023-03-28T20:39:09.939Z,96844.59
2023-03-28T20:41:40.029Z,97053.50
2023-03-28T20:44:08.776Z,97015.69
2023-03-28T20:46:37.891Z,97020.75
2023-03-28T20:49:07.814Z,97021.56
2023-03-28T20:51:39.072Z,96946.72
2023-03-28T20:54:07.777Z,96968.03
2023-03-28T20:56:36.112Z,97022.75
2023-03-28T20:59:06.289Z,96959.69
2023-03-28T21:01:39.411Z,96947.03
2023-03-28T21:04:08.607Z,96993.25
2023-03-28T21:06:38.455Z,96977.00
2023-03-28T21:09:09.877Z,97050.34
2023-03-28T21:11:40.366Z,97007.06
2023-03-28T21:14:13.141Z,96985.28
2023-03-28T21:16:42.055Z,96992.41
2023-03-28T21:19:10.570Z,96954.19
2023-03-28T21:21:38.771Z,96989.28
2023-03-28T21:24:08.301Z,97011.09
2023-03-28T21:26:36.809Z,96984.75
2023-03-28T21:29:05.088Z,97013.25
2023-03-28T21:31:34.715Z,96998.59
2023-03-28T21:34:02.958Z,97025.38
2023-03-28T21:36:31.211Z,96997.91
2023-03-28T21:38:59.408Z,97033.41
2023-03-28T21:41:28.288Z,97104.03
2023-03-28T21:43:56.886Z,96933.50
2023-03-28T21:46:25.578Z,96993.16
2023-03-28T21:48:55.372Z,97012.94
2023-03-28T21:51:23.904Z,96998.94
2023-03-28T21:53:52.170Z,96981.03
2023-03-28T21:56:20.372Z,96973.66
2023-03-28T21:58:48.587Z,96945.63
2023-03-28T22:04:15.297Z,97006.47
2023-03-28T22:06:44.398Z,96981.03
2023-03-28T22:09:12.600Z,96939.84
2023-03-28T22:11:42.157Z,96980.72
2023-03-28T22:14:10.348Z,97007.63
2023-03-28T22:16:40.091Z,97026.97
2023-03-28T22:19:11.288Z,96754.22
2023-03-28T22:21:41.018Z,97018.59
2023-03-28T22:24:12.998Z,96996.34
2023-03-28T22:26:42.505Z,96978.19
2023-03-28T22:29:10.716Z,96999.53
2023-03-28T22:31:39.087Z,97065.88
2023-03-28T22:34:07.345Z,96994.53
2023-03-28T22:36:35.968Z,97057.75
2023-03-28T22:39:10.393Z,97016.72
2023-03-28T22:41:44.862Z,97032.91
2023-03-28T22:44:13.281Z,97040.41
2023-03-28T22:46:42.447Z,96983.81
2023-03-28T22:49:12.954Z,97003.19
2023-03-28T22:51:46.141Z,97005.13
2023-03-28T22:54:21.004Z,96989.16
2023-03-28T22:56:49.278Z,97017.22
2023-03-28T22:59:17.502Z,97011.34
2023-03-28T23:01:46.486Z,97031.72
2023-03-28T23:04:14.863Z,97025.22
2023-03-28T23:06:44.519Z,96949.44
2023-03-28T23:09:15.760Z,97028.41
2023-03-28T23:11:44.384Z,96989.59
2023-03-28T23:14:12.915Z,96994.75
2023-03-28T23:16:41.167Z,96972.88
2023-03-28T23:19:10.015Z,96972.06
2023-03-28T23:21:38.350Z,96989.00
2023-03-28T23:24:08.501Z,96968.81
2023-03-28T23:26:38.132Z,96935.25
2023-03-28T23:29:11.279Z,96946.22
2023-03-28T23:31:39.484Z,96961.28
2023-03-28T23:34:07.913Z,96968.88
2023-03-28T23:36:36.187Z,96970.53
2023-03-28T23:39:05.250Z,96946.09
2023-03-28T23:41:33.445Z,96958.81
2023-03-28T23:44:02.961Z,97029.13
2023-03-28T23:46:31.123Z,96982.69
2023-03-28T23:48:59.373Z,96984.59
2023-03-28T23:51:29.164Z,96984.75
2023-03-28T23:53:57.378Z,96985.38
2023-03-28T23:56:25.736Z,96989.88
2023-03-28T23:58:53.894Z,96912.56
